Allport, Pennsylvania
Current Conditions -  °F | °C
As of 8:54 PM on Friday 19 Dec 2014 (Local Time) from KFIG Reporting Station
Clear Clear  
Wind Chill: -7°   Ceiling: Unl
Heat Index: -4°   Visibility: 10mi
Dew Point: -8°   Wind: 5mph
Humidity: 72%   Direction: 270°W
Pressure: 30.22"   Gusts: NA
Location:  40.96°N, 78.2°W
Report Text: KFIG 200154Z AUTO 27004KT 10SM CLR M04/M08 A3022 RMK AO2 SLP253 T10391083
Loading
Personal Weather Stations






























Interactive Weather Map New forecast layout! Learn more

10-Day Weather Forecast

Advertisements
Track Severe Weather on mobile